sensor_id;sensor_type;location;lat;lon;timestamp;P1;durP1;ratioP1;P2;durP2;ratioP2
29370;SDS011;16357;52.188;7.838;2024-02-21T00:02:11;23.67;;;11.32;;
29370;SDS011;16357;52.188;7.838;2024-02-21T00:04:38;20.08;;;11.35;;
29370;SDS011;16357;52.188;7.838;2024-02-21T00:07:05;19.70;;;11.77;;
29370;SDS011;16357;52.188;7.838;2024-02-21T00:09:31;21.13;;;11.35;;
29370;SDS011;16357;52.188;7.838;2024-02-21T00:11:58;24.88;;;11.75;;
29370;SDS011;16357;52.188;7.838;2024-02-21T00:14:25;23.15;;;11.95;;
29370;SDS011;16357;52.188;7.838;2024-02-21T00:16:52;21.60;;;11.02;;
29370;SDS011;16357;52.188;7.838;2024-02-21T00:19:19;22.55;;;10.82;;
29370;SDS011;16357;52.188;7.838;2024-02-21T00:21:45;19.58;;;10.57;;
29370;SDS011;16357;52.188;7.838;2024-02-21T00:24:12;22.45;;;10.57;;
29370;SDS011;16357;52.188;7.838;2024-02-21T00:26:38;21.67;;;11.50;;
29370;SDS011;16357;52.188;7.838;2024-02-21T00:29:05;24.38;;;10.95;;
29370;SDS011;16357;52.188;7.838;2024-02-21T00:31:34;23.60;;;11.75;;
29370;SDS011;16357;52.188;7.838;2024-02-21T00:34:00;20.50;;;11.80;;
29370;SDS011;16357;52.188;7.838;2024-02-21T00:36:27;21.40;;;11.43;;
29370;SDS011;16357;52.188;7.838;2024-02-21T00:38:53;24.00;;;11.60;;
29370;SDS011;16357;52.188;7.838;2024-02-21T00:41:20;21.13;;;11.48;;
29370;SDS011;16357;52.188;7.838;2024-02-21T00:43:46;26.02;;;11.43;;
29370;SDS011;16357;52.188;7.838;2024-02-21T00:46:15;23.58;;;10.88;;
29370;SDS011;16357;52.188;7.838;2024-02-21T00:48:41;18.85;;;10.52;;
29370;SDS011;16357;52.188;7.838;2024-02-21T00:51:08;20.48;;;10.57;;
29370;SDS011;16357;52.188;7.838;2024-02-21T00:53:34;20.23;;;10.88;;
29370;SDS011;16357;52.188;7.838;2024-02-21T00:56:05;21.40;;;10.98;;
29370;SDS011;16357;52.188;7.838;2024-02-21T00:58:32;21.27;;;9.98;;
29370;SDS011;16357;52.188;7.838;2024-02-21T01:00:58;19.90;;;10.02;;
29370;SDS011;16357;52.188;7.838;2024-02-21T01:03:26;19.30;;;10.30;;
29370;SDS011;16357;52.188;7.838;2024-02-21T01:05:52;19.73;;;10.07;;
29370;SDS011;16357;52.188;7.838;2024-02-21T01:08:19;19.92;;;10.50;;
29370;SDS011;16357;52.188;7.838;2024-02-21T01:10:45;17.20;;;9.98;;
29370;SDS011;16357;52.188;7.838;2024-02-21T01:13:12;18.52;;;9.73;;
29370;SDS011;16357;52.188;7.838;2024-02-21T01:15:38;19.30;;;9.98;;
29370;SDS011;16357;52.188;7.838;2024-02-21T01:18:05;17.73;;;10.20;;
29370;SDS011;16357;52.188;7.838;2024-02-21T01:20:31;17.73;;;10.15;;
29370;SDS011;16357;52.188;7.838;2024-02-21T01:22:58;22.38;;;10.50;;
29370;SDS011;16357;52.188;7.838;2024-02-21T01:25:24;18.98;;;10.68;;
29370;SDS011;16357;52.188;7.838;2024-02-21T01:27:51;19.42;;;10.43;;
29370;SDS011;16357;52.188;7.838;2024-02-21T01:30:18;21.33;;;10.82;;
29370;SDS011;16357;52.188;7.838;2024-02-21T01:32:44;23.45;;;10.55;;
29370;SDS011;16357;52.188;7.838;2024-02-21T01:35:10;20.02;;;10.80;;
29370;SDS011;16357;52.188;7.838;2024-02-21T01:37:37;19.00;;;10.38;;
29370;SDS011;16357;52.188;7.838;2024-02-21T01:40:04;21.08;;;10.73;;
29370;SDS011;16357;52.188;7.838;2024-02-21T01:42:31;21.25;;;10.98;;
29370;SDS011;16357;52.188;7.838;2024-02-21T01:44:58;23.10;;;11.18;;
29370;SDS011;16357;52.188;7.838;2024-02-21T01:47:24;19.15;;;10.52;;
29370;SDS011;16357;52.188;7.838;2024-02-21T01:49:51;20.60;;;11.00;;
29370;SDS011;16357;52.188;7.838;2024-02-21T01:52:17;20.80;;;10.18;;
29370;SDS011;16357;52.188;7.838;2024-02-21T01:54:44;23.45;;;11.60;;
29370;SDS011;16357;52.188;7.838;2024-02-21T01:57:13;20.83;;;10.80;;
29370;SDS011;16357;52.188;7.838;2024-02-21T01:59:39;21.13;;;10.80;;
29370;SDS011;16357;52.188;7.838;2024-02-21T02:02:06;21.60;;;11.20;;
29370;SDS011;16357;52.188;7.838;2024-02-21T02:04:33;20.63;;;10.95;;
29370;SDS011;16357;52.188;7.838;2024-02-21T02:07:02;22.73;;;11.65;;
29370;SDS011;16357;52.188;7.838;2024-02-21T02:09:30;22.80;;;10.85;;
29370;SDS011;16357;52.188;7.838;2024-02-21T02:11:56;21.95;;;11.05;;
29370;SDS011;16357;52.188;7.838;2024-02-21T02:14:25;24.83;;;12.15;;
29370;SDS011;16357;52.188;7.838;2024-02-21T02:16:51;21.73;;;11.13;;
29370;SDS011;16357;52.188;7.838;2024-02-21T02:19:18;24.58;;;12.05;;
29370;SDS011;16357;52.188;7.838;2024-02-21T02:21:46;22.70;;;12.05;;
29370;SDS011;16357;52.188;7.838;2024-02-21T02:24:20;24.75;;;11.88;;
29370;SDS011;16357;52.188;7.838;2024-02-21T02:26:47;23.70;;;11.85;;
29370;SDS011;16357;52.188;7.838;2024-02-21T02:29:13;21.88;;;11.70;;
29370;SDS011;16357;52.188;7.838;2024-02-21T02:31:40;21.17;;;11.60;;
29370;SDS011;16357;52.188;7.838;2024-02-21T02:34:06;23.80;;;12.05;;
29370;SDS011;16357;52.188;7.838;2024-02-21T02:36:33;24.02;;;11.95;;
29370;SDS011;16357;52.188;7.838;2024-02-21T02:39:00;26.85;;;12.65;;
29370;SDS011;16357;52.188;7.838;2024-02-21T02:41:26;21.88;;;12.13;;
29370;SDS011;16357;52.188;7.838;2024-02-21T02:43:53;24.92;;;12.45;;
29370;SDS011;16357;52.188;7.838;2024-02-21T02:46:19;22.77;;;11.50;;
29370;SDS011;16357;52.188;7.838;2024-02-21T02:48:46;22.17;;;12.45;;
29370;SDS011;16357;52.188;7.838;2024-02-21T02:51:12;21.75;;;11.90;;
29370;SDS011;16357;52.188;7.838;2024-02-21T02:53:39;23.42;;;12.30;;
29370;SDS011;16357;52.188;7.838;2024-02-21T02:56:05;30.67;;;13.20;;
29370;SDS011;16357;52.188;7.838;2024-02-21T02:58:32;22.08;;;12.60;;
29370;SDS011;16357;52.188;7.838;2024-02-21T03:00:58;25.27;;;12.70;;
29370;SDS011;16357;52.188;7.838;2024-02-21T03:03:25;25.48;;;12.23;;
29370;SDS011;16357;52.188;7.838;2024-02-21T03:05:51;23.55;;;12.32;;
29370;SDS011;16357;52.188;7.838;2024-02-21T03:08:18;22.15;;;12.40;;
29370;SDS011;16357;52.188;7.838;2024-02-21T03:10:44;24.05;;;12.00;;
29370;SDS011;16357;52.188;7.838;2024-02-21T03:13:11;23.17;;;12.02;;
29370;SDS011;16357;52.188;7.838;2024-02-21T03:15:37;25.05;;;13.30;;
29370;SDS011;16357;52.188;7.838;2024-02-21T03:18:04;22.48;;;12.02;;
29370;SDS011;16357;52.188;7.838;2024-02-21T03:20:30;23.88;;;12.30;;
29370;SDS011;16357;52.188;7.838;2024-02-21T03:22:57;23.92;;;12.05;;
29370;SDS011;16357;52.188;7.838;2024-02-21T03:25:24;27.63;;;12.73;;
29370;SDS011;16357;52.188;7.838;2024-02-21T03:27:50;22.80;;;11.95;;
29370;SDS011;16357;52.188;7.838;2024-02-21T03:30:17;25.05;;;12.52;;
29370;SDS011;16357;52.188;7.838;2024-02-21T03:32:44;22.88;;;11.38;;
29370;SDS011;16357;52.188;7.838;2024-02-21T03:35:10;23.13;;;12.07;;
29370;SDS011;16357;52.188;7.838;2024-02-21T03:37:37;23.40;;;12.02;;
29370;SDS011;16357;52.188;7.838;2024-02-21T03:40:08;24.58;;;11.90;;
29370;SDS011;16357;52.188;7.838;2024-02-21T03:42:38;24.08;;;11.98;;
29370;SDS011;16357;52.188;7.838;2024-02-21T03:45:04;22.35;;;11.90;;
29370;SDS011;16357;52.188;7.838;2024-02-21T03:47:31;26.45;;;12.80;;
29370;SDS011;16357;52.188;7.838;2024-02-21T03:49:58;30.33;;;12.75;;
29370;SDS011;16357;52.188;7.838;2024-02-21T03:52:26;23.20;;;12.25;;
29370;SDS011;16357;52.188;7.838;2024-02-21T03:54:53;23.05;;;12.13;;
29370;SDS011;16357;52.188;7.838;2024-02-21T03:57:21;23.13;;;12.10;;
29370;SDS011;16357;52.188;7.838;2024-02-21T03:59:50;25.95;;;12.45;;
29370;SDS011;16357;52.188;7.838;2024-02-21T04:02:18;23.17;;;12.90;;
29370;SDS011;16357;52.188;7.838;2024-02-21T04:04:44;23.40;;;11.70;;
29370;SDS011;16357;52.188;7.838;2024-02-21T04:07:16;23.52;;;12.20;;
29370;SDS011;16357;52.188;7.838;2024-02-21T04:09:43;26.60;;;11.98;;
29370;SDS011;16357;52.188;7.838;2024-02-21T04:12:09;26.25;;;12.65;;
29370;SDS011;16357;52.188;7.838;2024-02-21T04:14:36;21.30;;;12.10;;
29370;SDS011;16357;52.188;7.838;2024-02-21T04:17:02;21.25;;;11.73;;
29370;SDS011;16357;52.188;7.838;2024-02-21T04:19:29;25.27;;;13.02;;
29370;SDS011;16357;52.188;7.838;2024-02-21T04:21:57;21.27;;;11.30;;
29370;SDS011;16357;52.188;7.838;2024-02-21T04:24:24;24.75;;;12.15;;
29370;SDS011;16357;52.188;7.838;2024-02-21T04:26:50;26.95;;;12.32;;
29370;SDS011;16357;52.188;7.838;2024-02-21T04:29:17;28.10;;;11.63;;
29370;SDS011;16357;52.188;7.838;2024-02-21T04:31:43;19.88;;;11.20;;
29370;SDS011;16357;52.188;7.838;2024-02-21T04:34:10;21.92;;;12.45;;
29370;SDS011;16357;52.188;7.838;2024-02-21T04:36:36;24.20;;;12.38;;
29370;SDS011;16357;52.188;7.838;2024-02-21T04:39:03;23.08;;;12.60;;
29370;SDS011;16357;52.188;7.838;2024-02-21T04:41:29;29.30;;;12.85;;
29370;SDS011;16357;52.188;7.838;2024-02-21T04:43:56;23.38;;;12.05;;
29370;SDS011;16357;52.188;7.838;2024-02-21T04:46:22;21.08;;;12.00;;
29370;SDS011;16357;52.188;7.838;2024-02-21T04:48:49;22.10;;;12.07;;
29370;SDS011;16357;52.188;7.838;2024-02-21T04:51:15;25.20;;;13.05;;
29370;SDS011;16357;52.188;7.838;2024-02-21T04:53:42;23.67;;;12.20;;
29370;SDS011;16357;52.188;7.838;2024-02-21T04:56:08;22.70;;;12.23;;
29370;SDS011;16357;52.188;7.838;2024-02-21T04:58:37;22.23;;;12.30;;
29370;SDS011;16357;52.188;7.838;2024-02-21T05:01:04;22.65;;;11.88;;
29370;SDS011;16357;52.188;7.838;2024-02-21T05:03:31;22.58;;;11.15;;
29370;SDS011;16357;52.188;7.838;2024-02-21T05:05:58;20.45;;;11.90;;
29370;SDS011;16357;52.188;7.838;2024-02-21T05:08:25;22.73;;;11.27;;
29370;SDS011;16357;52.188;7.838;2024-02-21T05:10:52;26.95;;;12.00;;
29370;SDS011;16357;52.188;7.838;2024-02-21T05:13:18;25.90;;;12.57;;
29370;SDS011;16357;52.188;7.838;2024-02-21T05:15:45;18.40;;;11.52;;
29370;SDS011;16357;52.188;7.838;2024-02-21T05:18:11;20.13;;;12.15;;
29370;SDS011;16357;52.188;7.838;2024-02-21T05:20:38;21.60;;;11.40;;
29370;SDS011;16357;52.188;7.838;2024-02-21T05:23:04;20.23;;;10.98;;
29370;SDS011;16357;52.188;7.838;2024-02-21T05:25:31;22.08;;;11.25;;
29370;SDS011;16357;52.188;7.838;2024-02-21T05:27:57;23.08;;;11.52;;
29370;SDS011;16357;52.188;7.838;2024-02-21T05:30:28;29.02;;;10.95;;
29370;SDS011;16357;52.188;7.838;2024-02-21T05:32:54;22.38;;;10.02;;
29370;SDS011;16357;52.188;7.838;2024-02-21T05:35:24;24.88;;;10.98;;
29370;SDS011;16357;52.188;7.838;2024-02-21T05:37:52;26.08;;;12.02;;
29370;SDS011;16357;52.188;7.838;2024-02-21T05:40:19;21.45;;;10.13;;
29370;SDS011;16357;52.188;7.838;2024-02-21T05:42:46;20.08;;;10.23;;
29370;SDS011;16357;52.188;7.838;2024-02-21T05:45:12;19.20;;;10.18;;
29370;SDS011;16357;52.188;7.838;2024-02-21T05:47:39;18.02;;;10.57;;
29370;SDS011;16357;52.188;7.838;2024-02-21T05:50:06;17.25;;;9.70;;
29370;SDS011;16357;52.188;7.838;2024-02-21T05:52:32;19.15;;;10.18;;
29370;SDS011;16357;52.188;7.838;2024-02-21T05:54:59;19.67;;;10.65;;
29370;SDS011;16357;52.188;7.838;2024-02-21T05:57:25;21.00;;;10.75;;
29370;SDS011;16357;52.188;7.838;2024-02-21T05:59:52;20.77;;;10.40;;
29370;SDS011;16357;52.188;7.838;2024-02-21T06:02:18;19.95;;;10.15;;
29370;SDS011;16357;52.188;7.838;2024-02-21T06:04:46;21.83;;;10.25;;
29370;SDS011;16357;52.188;7.838;2024-02-21T06:07:12;21.65;;;10.00;;
29370;SDS011;16357;52.188;7.838;2024-02-21T06:09:39;19.15;;;10.05;;
29370;SDS011;16357;52.188;7.838;2024-02-21T06:12:06;26.95;;;9.82;;
29370;SDS011;16357;52.188;7.838;2024-02-21T06:14:32;17.50;;;9.65;;
29370;SDS011;16357;52.188;7.838;2024-02-21T06:17:11;17.27;;;9.27;;
29370;SDS011;16357;52.188;7.838;2024-02-21T06:19:39;18.13;;;9.55;;
29370;SDS011;16357;52.188;7.838;2024-02-21T06:22:07;16.88;;;9.52;;
29370;SDS011;16357;52.188;7.838;2024-02-21T06:24:35;18.00;;;9.48;;
29370;SDS011;16357;52.188;7.838;2024-02-21T06:27:05;16.13;;;9.80;;
29370;SDS011;16357;52.188;7.838;2024-02-21T06:29:36;18.67;;;9.13;;
29370;SDS011;16357;52.188;7.838;2024-02-21T06:32:02;16.63;;;8.77;;
29370;SDS011;16357;52.188;7.838;2024-02-21T06:34:29;17.15;;;9.02;;
29370;SDS011;16357;52.188;7.838;2024-02-21T06:36:59;15.75;;;8.77;;
29370;SDS011;16357;52.188;7.838;2024-02-21T06:39:26;21.58;;;9.70;;
29370;SDS011;16357;52.188;7.838;2024-02-21T06:41:55;20.55;;;9.63;;
29370;SDS011;16357;52.188;7.838;2024-02-21T06:44:27;21.05;;;9.95;;
29370;SDS011;16357;52.188;7.838;2024-02-21T06:46:54;17.23;;;9.02;;
29370;SDS011;16357;52.188;7.838;2024-02-21T06:49:21;14.18;;;9.13;;
29370;SDS011;16357;52.188;7.838;2024-02-21T06:51:48;15.50;;;8.50;;
29370;SDS011;16357;52.188;7.838;2024-02-21T06:54:14;16.90;;;9.00;;
29370;SDS011;16357;52.188;7.838;2024-02-21T06:56:41;17.25;;;9.00;;
29370;SDS011;16357;52.188;7.838;2024-02-21T06:59:07;17.48;;;9.05;;
29370;SDS011;16357;52.188;7.838;2024-02-21T07:01:34;18.38;;;8.40;;
29370;SDS011;16357;52.188;7.838;2024-02-21T07:04:00;19.25;;;8.70;;
29370;SDS011;16357;52.188;7.838;2024-02-21T07:06:27;14.32;;;8.23;;
29370;SDS011;16357;52.188;7.838;2024-02-21T07:08:53;19.00;;;8.50;;
29370;SDS011;16357;52.188;7.838;2024-02-21T07:11:20;15.98;;;7.95;;
29370;SDS011;16357;52.188;7.838;2024-02-21T07:13:46;15.40;;;8.27;;
29370;SDS011;16357;52.188;7.838;2024-02-21T07:16:13;13.50;;;8.10;;
29370;SDS011;16357;52.188;7.838;2024-02-21T07:18:40;16.10;;;8.30;;
29370;SDS011;16357;52.188;7.838;2024-02-21T07:21:06;15.85;;;8.13;;
29370;SDS011;16357;52.188;7.838;2024-02-21T07:23:33;18.30;;;8.70;;
29370;SDS011;16357;52.188;7.838;2024-02-21T07:25:59;16.25;;;8.35;;
29370;SDS011;16357;52.188;7.838;2024-02-21T07:28:26;20.25;;;8.63;;
29370;SDS011;16357;52.188;7.838;2024-02-21T07:30:52;19.67;;;8.55;;
29370;SDS011;16357;52.188;7.838;2024-02-21T07:33:19;21.20;;;8.10;;
29370;SDS011;16357;52.188;7.838;2024-02-21T07:35:45;18.67;;;8.13;;
29370;SDS011;16357;52.188;7.838;2024-02-21T07:38:12;16.15;;;8.30;;
29370;SDS011;16357;52.188;7.838;2024-02-21T07:40:39;16.70;;;8.18;;
29370;SDS011;16357;52.188;7.838;2024-02-21T07:43:06;16.60;;;8.38;;
29370;SDS011;16357;52.188;7.838;2024-02-21T07:45:32;18.15;;;8.23;;
29370;SDS011;16357;52.188;7.838;2024-02-21T07:47:59;16.27;;;7.82;;
29370;SDS011;16357;52.188;7.838;2024-02-21T07:50:26;15.25;;;7.80;;
29370;SDS011;16357;52.188;7.838;2024-02-21T07:52:53;16.02;;;8.30;;
29370;SDS011;16357;52.188;7.838;2024-02-21T07:55:19;18.92;;;8.43;;
29370;SDS011;16357;52.188;7.838;2024-02-21T07:57:46;17.60;;;8.52;;
29370;SDS011;16357;52.188;7.838;2024-02-21T08:00:12;21.25;;;8.45;;
29370;SDS011;16357;52.188;7.838;2024-02-21T08:02:46;15.52;;;8.98;;
29370;SDS011;16357;52.188;7.838;2024-02-21T08:05:12;15.90;;;8.70;;
29370;SDS011;16357;52.188;7.838;2024-02-21T08:07:39;16.55;;;8.52;;
29370;SDS011;16357;52.188;7.838;2024-02-21T08:10:05;13.70;;;8.18;;
29370;SDS011;16357;52.188;7.838;2024-02-21T08:12:35;15.75;;;8.90;;
29370;SDS011;16357;52.188;7.838;2024-02-21T08:15:02;20.08;;;8.98;;
29370;SDS011;16357;52.188;7.838;2024-02-21T08:17:31;20.83;;;8.80;;
29370;SDS011;16357;52.188;7.838;2024-02-21T08:19:59;16.13;;;8.77;;
29370;SDS011;16357;52.188;7.838;2024-02-21T08:22:26;19.95;;;8.90;;
29370;SDS011;16357;52.188;7.838;2024-02-21T08:24:53;17.38;;;8.27;;
29370;SDS011;16357;52.188;7.838;2024-02-21T08:27:19;16.20;;;8.50;;
29370;SDS011;16357;52.188;7.838;2024-02-21T08:29:46;17.17;;;8.93;;
29370;SDS011;16357;52.188;7.838;2024-02-21T08:32:12;18.25;;;8.77;;
29370;SDS011;16357;52.188;7.838;2024-02-21T08:34:39;15.43;;;8.88;;
29370;SDS011;16357;52.188;7.838;2024-02-21T08:37:05;14.43;;;8.82;;
29370;SDS011;16357;52.188;7.838;2024-02-21T08:39:32;16.65;;;9.02;;
29370;SDS011;16357;52.188;7.838;2024-02-21T08:41:58;16.80;;;8.95;;
29370;SDS011;16357;52.188;7.838;2024-02-21T08:44:27;16.95;;;8.73;;
29370;SDS011;16357;52.188;7.838;2024-02-21T08:46:54;20.30;;;9.55;;
29370;SDS011;16357;52.188;7.838;2024-02-21T08:49:22;13.65;;;7.55;;
29370;SDS011;16357;52.188;7.838;2024-02-21T08:51:49;16.80;;;8.57;;
29370;SDS011;16357;52.188;7.838;2024-02-21T08:54:15;17.33;;;8.10;;
29370;SDS011;16357;52.188;7.838;2024-02-21T08:56:43;12.38;;;7.57;;
29370;SDS011;16357;52.188;7.838;2024-02-21T08:59:09;14.77;;;7.50;;
29370;SDS011;16357;52.188;7.838;2024-02-21T09:01:36;14.75;;;8.25;;
29370;SDS011;16357;52.188;7.838;2024-02-21T09:04:03;14.52;;;8.20;;
29370;SDS011;16357;52.188;7.838;2024-02-21T09:06:30;18.08;;;7.68;;
29370;SDS011;16357;52.188;7.838;2024-02-21T09:08:57;14.90;;;7.65;;
29370;SDS011;16357;52.188;7.838;2024-02-21T09:11:24;17.25;;;7.00;;
29370;SDS011;16357;52.188;7.838;2024-02-21T09:13:51;14.68;;;6.95;;
29370;SDS011;16357;52.188;7.838;2024-02-21T09:16:17;16.35;;;7.05;;
29370;SDS011;16357;52.188;7.838;2024-02-21T09:18:44;18.35;;;7.25;;
29370;SDS011;16357;52.188;7.838;2024-02-21T09:21:10;10.32;;;5.95;;
29370;SDS011;16357;52.188;7.838;2024-02-21T09:23:37;16.45;;;6.43;;
29370;SDS011;16357;52.188;7.838;2024-02-21T09:26:03;14.90;;;6.28;;
29370;SDS011;16357;52.188;7.838;2024-02-21T09:28:30;11.85;;;5.53;;
29370;SDS011;16357;52.188;7.838;2024-02-21T09:30:57;14.15;;;5.93;;
29370;SDS011;16357;52.188;7.838;2024-02-21T09:33:23;13.57;;;6.32;;
29370;SDS011;16357;52.188;7.838;2024-02-21T09:35:58;13.50;;;5.85;;
29370;SDS011;16357;52.188;7.838;2024-02-21T09:38:25;11.43;;;5.43;;
29370;SDS011;16357;52.188;7.838;2024-02-21T09:41:37;10.27;;;5.50;;
29370;SDS011;16357;52.188;7.838;2024-02-21T09:43:51;11.10;;;5.25;;
29370;SDS011;16357;52.188;7.838;2024-02-21T09:46:21;9.82;;;5.03;;
29370;SDS011;16357;52.188;7.838;2024-02-21T09:51:37;9.65;;;4.70;;
29370;SDS011;16357;52.188;7.838;2024-02-21T09:54:07;10.00;;;5.00;;
29370;SDS011;16357;52.188;7.838;2024-02-21T09:56:42;12.80;;;5.43;;
29370;SDS011;16357;52.188;7.838;2024-02-21T09:59:11;14.40;;;5.55;;
29370;SDS011;16357;52.188;7.838;2024-02-21T10:01:37;12.25;;;5.18;;
29370;SDS011;16357;52.188;7.838;2024-02-21T10:04:04;11.15;;;5.28;;
29370;SDS011;16357;52.188;7.838;2024-02-21T10:06:31;15.15;;;5.43;;
29370;SDS011;16357;52.188;7.838;2024-02-21T10:08:58;7.68;;;4.65;;
29370;SDS011;16357;52.188;7.838;2024-02-21T10:11:25;10.95;;;4.93;;
29370;SDS011;16357;52.188;7.838;2024-02-21T10:14:05;10.32;;;5.32;;
29370;SDS011;16357;52.188;7.838;2024-02-21T10:16:38;8.10;;;4.90;;
29370;SDS011;16357;52.188;7.838;2024-02-21T10:19:05;13.00;;;5.18;;
29370;SDS011;16357;52.188;7.838;2024-02-21T10:21:31;7.68;;;4.95;;
29370;SDS011;16357;52.188;7.838;2024-02-21T10:23:58;9.20;;;4.78;;
29370;SDS011;16357;52.188;7.838;2024-02-21T10:26:24;9.40;;;5.10;;
29370;SDS011;16357;52.188;7.838;2024-02-21T10:28:51;11.35;;;4.75;;
29370;SDS011;16357;52.188;7.838;2024-02-21T10:31:25;8.05;;;4.78;;
29370;SDS011;16357;52.188;7.838;2024-02-21T10:33:54;8.13;;;5.43;;
29370;SDS011;16357;52.188;7.838;2024-02-21T10:36:30;10.50;;;5.07;;
29370;SDS011;16357;52.188;7.838;2024-02-21T10:38:56;10.85;;;4.70;;
29370;SDS011;16357;52.188;7.838;2024-02-21T10:41:24;7.88;;;4.88;;
29370;SDS011;16357;52.188;7.838;2024-02-21T10:43:54;8.90;;;5.10;;
29370;SDS011;16357;52.188;7.838;2024-02-21T10:46:22;10.50;;;5.53;;
29370;SDS011;16357;52.188;7.838;2024-02-21T10:49:01;10.75;;;4.38;;
29370;SDS011;16357;52.188;7.838;2024-02-21T10:51:33;8.25;;;5.38;;
29370;SDS011;16357;52.188;7.838;2024-02-21T10:56:38;10.05;;;5.68;;
29370;SDS011;16357;52.188;7.838;2024-02-21T10:59:07;8.57;;;5.15;;
29370;SDS011;16357;52.188;7.838;2024-02-21T11:01:34;9.27;;;5.20;;
29370;SDS011;16357;52.188;7.838;2024-02-21T11:04:05;8.75;;;5.22;;
29370;SDS011;16357;52.188;7.838;2024-02-21T11:06:34;11.18;;;5.30;;
29370;SDS011;16357;52.188;7.838;2024-02-21T11:09:06;9.80;;;5.35;;
29370;SDS011;16357;52.188;7.838;2024-02-21T11:11:34;9.38;;;5.50;;
29370;SDS011;16357;52.188;7.838;2024-02-21T11:14:07;9.77;;;5.40;;
29370;SDS011;16357;52.188;7.838;2024-02-21T11:16:38;9.63;;;5.70;;
29370;SDS011;16357;52.188;7.838;2024-02-21T11:19:27;10.90;;;5.68;;
29370;SDS011;16357;52.188;7.838;2024-02-21T11:21:57;10.95;;;6.30;;
29370;SDS011;16357;52.188;7.838;2024-02-21T11:24:33;10.98;;;6.78;;
29370;SDS011;16357;52.188;7.838;2024-02-21T11:27:09;12.40;;;7.07;;
29370;SDS011;16357;52.188;7.838;2024-02-21T11:29:43;11.93;;;6.88;;
29370;SDS011;16357;52.188;7.838;2024-02-21T11:32:29;11.40;;;7.03;;
29370;SDS011;16357;52.188;7.838;2024-02-21T11:34:57;11.57;;;7.00;;
29370;SDS011;16357;52.188;7.838;2024-02-21T11:37:34;9.75;;;5.72;;
29370;SDS011;16357;52.188;7.838;2024-02-21T11:40:06;8.80;;;6.03;;
29370;SDS011;16357;52.188;7.838;2024-02-21T11:42:36;10.75;;;5.95;;
29370;SDS011;16357;52.188;7.838;2024-02-21T11:45:02;10.63;;;6.15;;
29370;SDS011;16357;52.188;7.838;2024-02-21T11:47:29;8.00;;;4.72;;
29370;SDS011;16357;52.188;7.838;2024-02-21T11:49:56;7.53;;;4.03;;
29370;SDS011;16357;52.188;7.838;2024-02-21T11:52:23;7.95;;;4.10;;
29370;SDS011;16357;52.188;7.838;2024-02-21T11:54:52;6.50;;;3.92;;
29370;SDS011;16357;52.188;7.838;2024-02-21T11:57:21;7.63;;;3.95;;
29370;SDS011;16357;52.188;7.838;2024-02-21T11:59:47;5.57;;;3.70;;
29370;SDS011;16357;52.188;7.838;2024-02-21T12:02:16;7.22;;;4.00;;
29370;SDS011;16357;52.188;7.838;2024-02-21T12:04:43;5.65;;;3.20;;
29370;SDS011;16357;52.188;7.838;2024-02-21T12:07:10;7.88;;;3.10;;
29370;SDS011;16357;52.188;7.838;2024-02-21T12:09:37;6.20;;;3.08;;
29370;SDS011;16357;52.188;7.838;2024-02-21T12:12:04;7.45;;;3.40;;
29370;SDS011;16357;52.188;7.838;2024-02-21T12:14:32;8.02;;;4.03;;
29370;SDS011;16357;52.188;7.838;2024-02-21T12:17:00;7.28;;;4.00;;
29370;SDS011;16357;52.188;7.838;2024-02-21T12:19:30;7.47;;;3.67;;
29370;SDS011;16357;52.188;7.838;2024-02-21T12:22:00;9.30;;;4.32;;
29370;SDS011;16357;52.188;7.838;2024-02-21T12:24:32;12.55;;;5.05;;
29370;SDS011;16357;52.188;7.838;2024-02-21T12:26:59;10.90;;;4.90;;
29370;SDS011;16357;52.188;7.838;2024-02-21T12:29:26;9.50;;;4.75;;
29370;SDS011;16357;52.188;7.838;2024-02-21T12:31:53;11.45;;;4.78;;
29370;SDS011;16357;52.188;7.838;2024-02-21T12:34:21;10.80;;;5.38;;
29370;SDS011;16357;52.188;7.838;2024-02-21T12:37:03;14.40;;;5.13;;
29370;SDS011;16357;52.188;7.838;2024-02-21T12:39:30;13.55;;;4.95;;
29370;SDS011;16357;52.188;7.838;2024-02-21T12:41:58;15.00;;;5.32;;
29370;SDS011;16357;52.188;7.838;2024-02-21T12:44:24;8.75;;;4.82;;
29370;SDS011;16357;52.188;7.838;2024-02-21T12:46:51;12.95;;;4.65;;
29370;SDS011;16357;52.188;7.838;2024-02-21T12:49:20;10.90;;;4.85;;
29370;SDS011;16357;52.188;7.838;2024-02-21T12:51:47;8.27;;;4.50;;
29370;SDS011;16357;52.188;7.838;2024-02-21T12:54:13;13.65;;;5.68;;
29370;SDS011;16357;52.188;7.838;2024-02-21T12:56:40;11.80;;;5.13;;
29370;SDS011;16357;52.188;7.838;2024-02-21T12:59:06;9.65;;;4.93;;
29370;SDS011;16357;52.188;7.838;2024-02-21T13:01:36;8.80;;;5.05;;
29370;SDS011;16357;52.188;7.838;2024-02-21T13:04:04;9.50;;;4.70;;
29370;SDS011;16357;52.188;7.838;2024-02-21T13:06:31;13.50;;;5.22;;
29370;SDS011;16357;52.188;7.838;2024-02-21T13:08:58;8.07;;;5.20;;
29370;SDS011;16357;52.188;7.838;2024-02-21T13:11:25;11.13;;;5.68;;
29370;SDS011;16357;52.188;7.838;2024-02-21T13:13:54;12.60;;;5.50;;
29370;SDS011;16357;52.188;7.838;2024-02-21T13:16:21;9.73;;;5.65;;
29370;SDS011;16357;52.188;7.838;2024-02-21T13:18:55;9.70;;;5.40;;
29370;SDS011;16357;52.188;7.838;2024-02-21T13:21:21;11.73;;;5.43;;
29370;SDS011;16357;52.188;7.838;2024-02-21T13:23:48;9.07;;;5.18;;
29370;SDS011;16357;52.188;7.838;2024-02-21T13:26:14;8.27;;;4.95;;
29370;SDS011;16357;52.188;7.838;2024-02-21T13:28:41;10.32;;;4.95;;
29370;SDS011;16357;52.188;7.838;2024-02-21T13:31:11;7.80;;;5.20;;
29370;SDS011;16357;52.188;7.838;2024-02-21T13:33:37;10.48;;;5.55;;
29370;SDS011;16357;52.188;7.838;2024-02-21T13:36:05;11.32;;;5.18;;
29370;SDS011;16357;52.188;7.838;2024-02-21T13:38:31;10.40;;;4.88;;
29370;SDS011;16357;52.188;7.838;2024-02-21T13:40:58;11.23;;;4.90;;
29370;SDS011;16357;52.188;7.838;2024-02-21T13:43:26;9.20;;;4.63;;
29370;SDS011;16357;52.188;7.838;2024-02-21T13:45:56;9.05;;;5.13;;
29370;SDS011;16357;52.188;7.838;2024-02-21T13:48:25;9.23;;;4.97;;
29370;SDS011;16357;52.188;7.838;2024-02-21T13:50:52;11.65;;;5.43;;
29370;SDS011;16357;52.188;7.838;2024-02-21T13:53:18;8.32;;;4.85;;
29370;SDS011;16357;52.188;7.838;2024-02-21T13:55:45;9.57;;;5.30;;
29370;SDS011;16357;52.188;7.838;2024-02-21T13:58:11;10.25;;;5.18;;
29370;SDS011;16357;52.188;7.838;2024-02-21T14:00:38;9.98;;;4.95;;
29370;SDS011;16357;52.188;7.838;2024-02-21T14:03:05;9.48;;;6.18;;
29370;SDS011;16357;52.188;7.838;2024-02-21T14:05:31;11.15;;;6.22;;
29370;SDS011;16357;52.188;7.838;2024-02-21T14:07:58;10.93;;;6.05;;
29370;SDS011;16357;52.188;7.838;2024-02-21T14:10:24;11.07;;;5.70;;
29370;SDS011;16357;52.188;7.838;2024-02-21T14:12:51;13.32;;;6.07;;
29370;SDS011;16357;52.188;7.838;2024-02-21T14:15:18;12.32;;;6.22;;
29370;SDS011;16357;52.188;7.838;2024-02-21T14:17:44;11.95;;;5.97;;
29370;SDS011;16357;52.188;7.838;2024-02-21T14:20:11;9.25;;;5.85;;
29370;SDS011;16357;52.188;7.838;2024-02-21T14:22:43;9.88;;;5.78;;
29370;SDS011;16357;52.188;7.838;2024-02-21T14:25:10;9.40;;;5.43;;
29370;SDS011;16357;52.188;7.838;2024-02-21T14:27:36;11.77;;;5.53;;
29370;SDS011;16357;52.188;7.838;2024-02-21T14:30:03;10.00;;;5.30;;
29370;SDS011;16357;52.188;7.838;2024-02-21T14:32:30;13.40;;;5.38;;
29370;SDS011;16357;52.188;7.838;2024-02-21T14:34:57;14.57;;;6.05;;
29370;SDS011;16357;52.188;7.838;2024-02-21T14:37:25;9.05;;;5.22;;
29370;SDS011;16357;52.188;7.838;2024-02-21T14:39:52;11.57;;;5.75;;